Latest Weather Observations for White Cliffs AWS

IDN60801

Issued at 11:34 pm EDT Tuesday 3 March 2015 (issued every 30 minutes, with the page automatically refreshed every 10 minutes)

About weather observations | Map of weather stations | Latest weather observations for NSW | Other Formats
Station Details ID: 046129 Name: WHITE CLIFFS AWS Lat: -30.85 Lon: 143.07 Height: 158.0 m
Data from the previous 72 hours. | See also: Recent months at White Cliffs AWS
Date/Time
EDT
Temp
°C
App
Temp
°C
Dew
Point
Rel
Hum
%
Delta-T
°C
Wind Press
QNH
hPa
Press
MSL
hPa
Rain
since 9 am
mm
Dir
 
Spd
km/h
Gust
km/h
Spd
kts
Gust
kts
03/11:30pm 28.2 24.0 3.8 21 12.4 SSW 15 17 8 9 1013.8 1013.0 0.0
03/11:00pm 28.4 24.2 4.0 21 12.4 SSW 15 17 8 9 1013.8 1013.0 0.0
03/10:30pm 29.0 25.2 3.8 20 12.9 S 13 15 7 8 1013.7 1012.9 0.0
03/10:00pm 29.7 25.8 3.6 19 13.3 S 13 15 7 8 1013.5 1012.7 0.0
03/09:30pm 30.4 26.5 3.4 18 13.8 S 13 13 7 7 1013.1 1012.3 0.0
03/09:00pm 31.4 27.1 3.4 17 14.4 S 15 17 8 9 1012.8 1012.0 0.0
03/08:30pm 32.1 27.8 3.1 16 14.9 S 15 20 8 11 1012.4 1011.6 0.0
03/08:00pm 33.0 27.7 2.9 15 15.5 S 20 26 11 14 1012.1 1011.3 0.0
03/07:30pm 34.0 27.9 2.8 14 16.1 S 24 30 13 16 1011.9 1011.1 0.0
03/07:00pm 34.5 28.3 2.1 13 16.6 S 24 37 13 20 1011.7 1010.9 0.0
03/06:30pm 35.1 29.0 2.6 13 16.9 S 24 35 13 19 1011.7 1010.9 0.0
03/06:00pm 35.6 29.3 1.8 12 17.4 SSE 24 33 13 18 1011.5 1010.7 0.0
03/05:30pm 36.2 29.8 1.1 11 17.9 S 24 33 13 18 1011.5 1010.7 0.0
03/05:00pm 35.7 29.5 1.9 12 17.4 SSW 24 37 13 20 1011.4 1010.6 0.0
03/04:30pm 36.3 29.9 1.2 11 17.9 S 24 39 13 21 1011.5 1010.7 0.0
03/04:00pm 35.3 28.6 -0.9 10 17.8 S 24 35 13 19 1011.9 1011.1 0.0
03/03:30pm 35.4 29.1 -0.8 10 17.8 S 22 32 12 17 1012.1 1011.3 0.0
03/03:00pm 35.4 28.7 -0.8 10 17.8 S 24 30 13 16 1012.4 1011.6 0.0
03/02:30pm 35.1 28.4 -1.1 10 17.7 S 24 33 13 18 1012.6 1011.8 0.0
03/02:00pm 34.3 27.7 -0.4 11 17.1 S 24 35 13 19 1012.6 1011.8 0.0
03/01:30pm 34.3 27.9 0.8 12 16.8 S 24 37 13 20 1013.0 1012.2 0.0
03/01:00pm 33.6 27.3 1.4 13 16.2 S 24 35 13 19 1013.4 1012.6 0.0
03/12:30pm 33.0 25.6 2.0 14 15.7 S 30 37 16 20 1013.8 1013.0 0.0
03/12:00pm 32.3 25.5 3.3 16 15.0 S 28 35 15 19 1014.0 1013.2 0.0
03/11:30am 31.6 25.0 4.4 18 14.2 S 28 35 15 19 1014.0 1013.2 0.0
03/11:00am 30.8 25.3 6.0 21 13.3 S 24 32 13 17 1013.8 1013.0 0.0
03/10:30am 28.8 23.1 5.0 22 12.4 S 24 32 13 17 1014.0 1013.2 0.0
03/10:00am 27.2 20.6 4.3 23 11.7 S 28 33 15 18 1013.6 1012.8 0.0
03/09:30am 25.5 19.2 4.0 25 10.8 S 26 33 14 18 1013.3 1012.5 0.0
03/09:00am 23.8 17.3 2.6 25 10.2 S 26 33 14 18 1013.3 1012.5 0.0
03/08:30am 22.4 16.5 1.4 25 9.8 S 22 28 12 15 1013.0 1012.2 0.0
03/08:00am 21.3 17.4 1.0 26 9.3 S 11 15 6 8 1012.5 1011.7 0.0
03/07:30am 20.5 16.9 0.9 27 8.9 SSE 9 13 5 7 1011.9 1011.1 0.0
03/07:00am 20.9 15.7 0.2 25 9.3 S 17 19 9 10 1011.8 1011.0 0.0
03/06:30am 21.0 15.8 0.2 25 9.4 S 17 20 9 11 1011.6 1010.8 0.0
03/06:00am 21.8 16.6 -0.2 23 9.9 S 17 19 9 10 1011.4 1010.6 0.0
03/05:30am 22.1 17.3 0.0 23 10.0 S 15 19 8 10 1011.3 1010.5 0.0
03/05:00am 21.7 16.4 -0.3 23 9.9 S 17 19 9 10 1011.4 1010.6 0.0
03/04:30am 22.9 18.0 -0.6 21 10.6 S 15 19 8 10 1011.4 1010.6 0.0
03/04:00am 23.5 18.2 -0.7 20 11.0 SSE 17 20 9 11 1011.4 1010.6 0.0
03/03:30am 23.6 18.2 -1.3 19 11.1 S 17 20 9 11 1011.5 1010.7 0.0
03/03:00am 23.7 19.1 -1.3 19 11.2 S 13 17 7 9 1011.5 1010.7 0.0
03/02:30am 24.3 18.3 -1.5 18 11.6 S 20 24 11 13 1011.4 1010.6 0.0
03/02:00am 24.7 18.7 -1.2 18 11.7 SSW 20 26 11 14 1011.6 1010.8 0.0
03/01:30am 24.9 19.2 -1.0 18 11.8 SSW 19 20 10 11 1011.7 1010.9 0.0
03/01:00am 25.7 19.9 -1.2 17 12.3 S 19 24 10 13 1011.7 1010.9 0.0
03/12:30am 26.4 20.7 -0.6 17 12.5 S 19 22 10 12 1011.5 1010.7 0.0
03/12:00am 26.9 21.3 -0.2 17 12.7 S 19 26 10 14 1011.5 1010.7 0.0
 
Date/Time
EDT
Temp
°C
App
Temp
°C
Dew
Point
Rel
Hum
%
Delta-T
°C
Wind Press
QNH
hPa
Press
MSL
hPa
Rain
since 9 am
mm
Dir
 
Spd
km/h
Gust
km/h
Spd
kts
Gust
kts
02/11:30pm 27.5 21.8 0.3 17 12.9 S 20 24 11 13 1011.5 1010.7 0.0
02/11:00pm 28.0 22.5 0.7 17 13.1 S 19 22 10 12 1011.6 1010.8 0.0
02/10:30pm 28.5 23.1 1.1 17 13.3 S 19 24 10 13 1011.6 1010.8 0.0
02/10:00pm 29.1 24.1 1.6 17 13.5 S 17 20 9 11 1011.4 1010.6 0.0
02/09:30pm 29.5 24.9 3.5 19 13.2 SSW 17 20 9 11 1011.2 1010.4 0.0
02/09:00pm 30.3 25.3 3.4 18 13.8 SSW 19 22 10 12 1010.8 1010.0 0.0
02/08:30pm 31.3 26.6 3.4 17 14.3 SSW 17 20 9 11 1010.5 1009.6 0.0
02/08:00pm 32.7 27.5 2.7 15 15.4 S 19 24 10 13 1010.1 1009.2 0.0
02/07:30pm 33.8 29.0 2.6 14 16.1 S 17 20 9 11 1009.6 1008.8 0.0
02/07:00pm 34.3 30.0 3.0 14 16.3 S 15 20 8 11 1009.1 1008.3 0.0
02/06:30pm 34.8 30.9 3.4 14 16.5 S 13 19 7 10 1008.8 1008.0 0.0
02/06:00pm 35.1 30.5 3.6 14 16.6 S 17 24 9 13 1008.8 1008.0 0.0
02/05:30pm 35.3 30.7 3.8 14 16.7 SSW 17 24 9 13 1008.7 1007.9 0.0
02/05:00pm 35.0 30.7 3.5 14 16.6 SSW 15 22 8 12 1008.9 1008.1 0.0
02/04:30pm 34.5 30.0 4.1 15 16.1 SSE 17 28 9 15 1009.0 1008.2 0.0
02/04:00pm 34.4 30.0 5.0 16 15.8 S 17 24 9 13 1009.1 1008.3 0.0
02/03:30pm 33.7 29.0 5.3 17 15.3 SSE 19 28 10 15 1009.4 1008.6 0.0
02/03:00pm 33.5 29.0 5.9 18 15.0 S 19 30 10 16 1010.1 1009.2 0.0
02/02:30pm 33.2 28.8 4.9 17 15.1 SSE 17 24 9 13 1010.5 1009.6 0.0
02/02:00pm 32.1 27.9 5.6 19 14.2 ESE 17 24 9 13 1011.0 1010.2 0.0
02/01:30pm 30.9 26.5 4.6 19 13.8 SE 17 22 9 12 1011.6 1010.8 0.0
02/01:00pm 29.9 25.5 4.5 20 13.2 SE 17 24 9 13 1011.9 1011.1 0.0
02/12:30pm 28.8 23.5 2.9 19 13.0 SE 20 26 11 14 1012.3 1011.5 0.0
02/12:00pm 28.0 23.0 3.7 21 12.3 ESE 19 26 10 14 1013.0 1012.2 0.0
02/11:30am 26.7 21.6 3.9 23 11.5 SE 20 28 11 15 1013.2 1012.4 0.0
02/11:00am 26.4 20.9 4.2 24 11.2 SE 22 30 12 16 1013.3 1012.5 0.0
02/10:30am 25.2 19.8 4.3 26 10.5 SSE 22 28 12 15 1013.4 1012.6 0.0
02/10:00am 23.6 17.5 5.0 30 9.4 SE 26 33 14 18 1013.4 1012.6 0.0
02/09:30am 22.5 16.8 5.0 32 8.7 ESE 24 32 13 17 1013.4 1012.6 0.0
02/09:00am 21.3 15.1 4.4 33 8.3 SE 26 35 14 19 1013.2 1012.4 0.0
02/08:30am 20.5 14.3 4.5 35 7.8 SE 26 35 14 19 1013.0 1012.2 0.0
02/08:00am 19.0 14.0 3.6 36 7.3 SSE 19 24 10 13 1012.8 1012.0 0.0
02/07:30am 18.6 13.5 3.3 36 7.2 SSE 19 24 10 13 1012.5 1011.7 0.0
02/07:00am 19.7 14.2 3.8 35 7.6 SE 22 30 12 16 1012.1 1011.3 0.0
02/06:30am 20.0 14.8 3.3 33 7.9 SE 20 28 11 15 1012.0 1011.2 0.0
02/06:00am 20.1 14.4 2.9 32 8.1 SE 22 30 12 16 1011.7 1010.9 0.0
02/05:30am 20.9 14.4 2.7 30 8.6 SE 26 32 14 17 1011.7 1010.9 0.0
02/05:00am 21.4 15.7 3.1 30 8.8 SE 22 32 12 17 1011.8 1011.0 0.0
02/04:30am 20.9 14.7 2.2 29 8.8 SSE 24 30 13 16 1012.1 1011.3 0.0
02/04:00am 20.9 15.0 1.7 28 8.9 SSE 22 28 12 15 1012.3 1011.5 0.0
02/03:30am 21.3 15.8 1.6 27 9.1 SSE 20 24 11 13 1012.1 1011.3 0.0
02/03:00am 21.9 16.3 1.5 26 9.5 SSE 20 28 11 15 1012.0 1011.2 0.0
02/02:30am 22.6 16.6 1.0 24 10.0 SSE 22 28 12 15 1012.2 1011.4 0.0
02/02:00am 23.3 16.9 1.0 23 10.4 SSE 24 30 13 16 1012.2 1011.4 0.0
02/01:30am 23.6 17.5 0.7 22 10.6 SSE 22 26 12 14 1012.5 1011.7 0.0
02/01:00am 24.2 17.4 0.5 21 11.0 SSE 26 32 14 17 1012.4 1011.6 0.0
02/12:30am 24.6 18.1 0.2 20 11.3 SSE 24 33 13 18 1012.2 1011.4 0.0
02/12:00am 24.9 18.4 0.4 20 11.4 SSE 24 32 13 17 1012.1 1011.3 0.0
 
Date/Time
EDT
Temp
°C
App
Temp
°C
Dew
Point
Rel
Hum
%
Delta-T
°C
Wind Press
QNH
hPa
Press
MSL
hPa
Rain
since 9 am
mm
Dir
 
Spd
km/h
Gust
km/h
Spd
kts
Gust
kts
01/11:30pm 25.1 19.0 0.6 20 11.5 SSE 22 28 12 15 1012.2 1011.4 0.0
01/11:00pm 25.4 19.8 1.5 21 11.4 S 20 26 11 14 1012.2 1011.4 0.0
01/10:30pm 26.1 20.7 1.4 20 11.8 SSE 19 24 10 13 1012.1 1011.3 0.0
01/10:00pm 26.8 21.9 2.0 20 12.1 SSE 17 22 9 12 1011.7 1010.9 0.0
01/09:30pm 27.5 22.3 2.6 20 12.3 SSE 19 24 10 13 1011.3 1010.5 0.0
01/09:00pm 28.0 22.4 1.5 18 12.9 S 20 26 11 14 1011.0 1010.2 0.0
01/08:30pm 28.7 22.0 1.3 17 13.4 S 26 33 14 18 1010.5 1009.6 0.0
01/08:00pm 29.3 22.6 1.7 17 13.6 S 26 35 14 19 1010.3 1009.4 0.0
01/07:30pm 30.1 23.2 4.7 20 13.2 S 30 37 16 20 1010.1 1009.2 0.0
01/07:00pm 30.4 23.1 5.6 21 13.2 S 33 41 18 22 1009.7 1008.9 0.0
01/06:30pm 31.3 24.9 7.1 22 13.2 S 30 41 16 22 1009.4 1008.6 0.0
01/06:00pm 31.4 25.3 8.4 24 12.9 SSE 30 41 16 22 1009.4 1008.6 0.0
01/05:30pm 31.7 25.3 9.3 25 12.7 S 33 41 18 22 1009.2 1008.4 0.0
01/05:00pm 31.7 25.5 9.3 25 12.7 S 32 44 17 24 1009.2 1008.4 0.0
01/04:30pm 32.0 25.7 8.9 24 13.0 SSE 32 44 17 24 1009.1 1008.3 0.0
01/04:00pm 31.4 24.9 9.0 25 12.6 S 33 44 18 24 1009.3 1008.5 0.0
01/03:30pm 31.8 26.1 9.9 26 12.5 S 30 41 16 22 1009.5 1008.7 0.0
01/03:00pm 31.0 24.4 8.7 25 12.5 S 33 48 18 26 1009.7 1008.9 0.0
01/02:30pm 31.0 25.4 11.4 30 11.5 SSE 32 44 17 24 1009.9 1009.0 0.0
01/02:00pm 30.8 25.4 12.2 32 11.0 S 32 41 17 22 1010.1 1009.2 0.0
01/01:30pm 29.6 24.7 12.5 35 10.1 S 30 41 16 22 1010.3 1009.4 0.0
01/01:00pm 30.0 25.1 13.7 37 9.8 S 32 44 17 24 1010.6 1009.7 0.0
01/12:30pm 29.0 24.6 15.2 43 8.5 S 32 44 17 24 1010.8 1010.0 0.0
01/12:00pm 28.3 23.9 15.6 46 7.8 S 33 43 18 23 1011.0 1010.2 0.0
01/11:30am 26.7 21.3 15.1 49 7.1 S 37 48 20 26 1011.0 1010.2 0.0
01/11:00am 26.4 21.4 15.1 49 6.9 S 35 44 19 24 1010.9 1010.1 0.0
01/10:30am 25.2 19.8 14.9 52 6.2 S 37 48 20 26 1010.7 1009.7 0.0
01/10:00am 24.8 19.0 14.9 54 6.0 S 39 48 21 26 1010.3 1009.2 0.0
01/09:30am 24.3 18.4 14.7 55 5.8 S 39 52 21 28 1009.9 1008.8 0.0
01/09:00am 24.4 18.5 14.8 55 5.8 S 39 48 21 26 1009.3 1008.3 0.0
01/08:30am 24.3 19.1 14.4 54 5.9 S 35 44 19 24 1009.1 1008.1 0.0
01/08:00am 24.5 20.3 13.4 50 6.5 S 28 41 15 22 1008.4 1007.4 0.0
01/07:30am 24.7 19.0 13.0 48 6.8 S 35 44 19 24 1007.6 1006.6 0.0
01/07:00am 25.3 19.7 12.2 44 7.6 SSW 33 43 18 23 1006.9 1005.9 0.0
01/06:30am 26.1 20.5 11.4 39 8.4 SSW 32 43 17 23 1006.4 1005.4 0.0
01/06:00am 26.8 21.0 10.9 37 9.1 SSW 32 41 17 22 1006.0 1005.0 0.0
01/05:30am 27.2 21.7 10.4 35 9.5 SSW 30 39 16 21 1005.6 1004.6 0.0
01/05:00am 27.7 22.4 10.0 33 10.0 SSW 28 33 15 18 1005.1 1004.1 0.0
01/04:30am 28.1 23.1 9.4 31 10.4 SSW 26 32 14 17 1004.9 1003.8 0.0
01/04:00am 27.8 23.6 8.1 29 10.8 SW 20 24 11 13 1004.7 1003.6 0.0
01/03:30am 26.0 23.0 7.6 31 9.9 W 13 15 7 8 1004.2 1003.1 0.0
01/03:00am 26.5 24.7 7.0 29 10.4 W 6 9 3 5 1004.2 1003.1 0.0
01/02:30am 27.8 25.8 7.1 27 11.1 N 7 9 4 5 1004.2 1003.1 0.0
01/02:00am 28.7 26.2 6.7 25 11.8 N 9 11 5 6 1004.5 1003.4 0.0
01/01:30am 29.6 27.2 6.9 24 12.2 NNE 9 9 5 5 1004.7 1003.6 0.0
01/01:00am 29.7 27.3 7.0 24 12.3 NE 9 13 5 7 1004.7 1003.6 0.0
01/12:30am 30.1 27.8 7.3 24 12.4 NE 9 11 5 6 1005.0 1003.9 0.0
01/12:00am 30.3 28.4 7.5 24 12.5 NE 7 9 4 5 1005.4 1004.4 0.0

Other Formats:

Comma delimited format used in spreadsheet applications
http://www.bom.gov.au/fwo/IDN60801/IDN60801.95699.axf

JavaScript Object Notation format (JSON) in row-major order
http://www.bom.gov.au/fwo/IDN60801/IDN60801.95699.json